createdAt,value
2017-11-14T00:00:57.656Z,21.10
2017-11-14T00:03:23.878Z,17.13
2017-11-14T00:05:50.058Z,13.20
2017-11-14T00:08:16.646Z,13.10
2017-11-14T00:10:42.859Z,18.33
2017-11-14T00:13:09.050Z,13.27
2017-11-14T00:15:36.354Z,14.97
2017-11-14T00:18:02.570Z,20.63
2017-11-14T00:20:28.787Z,15.93
2017-11-14T00:22:55.706Z,19.00
2017-11-14T00:25:21.914Z,13.53
2017-11-14T00:27:48.113Z,12.07
2017-11-14T00:30:14.295Z,15.53
2017-11-14T00:32:40.497Z,20.77
2017-11-14T00:35:06.669Z,15.07
2017-11-14T00:37:32.873Z,18.20
2017-11-14T00:39:59.069Z,15.13
2017-11-14T00:42:25.997Z,20.30
2017-11-14T00:44:52.190Z,17.23
2017-11-14T00:47:18.391Z,15.20
2017-11-14T00:49:45.310Z,14.93
2017-11-14T00:52:12.278Z,19.80
2017-11-14T00:54:38.454Z,11.70
2017-11-14T00:57:04.649Z,14.97
2017-11-14T00:59:31.566Z,11.93
2017-11-14T01:01:57.777Z,11.57
2017-11-14T01:04:23.958Z,11.97
2017-11-14T01:06:50.877Z,15.73
2017-11-14T01:09:17.055Z,15.93
2017-11-14T01:11:43.970Z,12.10
2017-11-14T01:14:10.950Z,10.70
2017-11-14T01:16:38.714Z,12.37
2017-11-14T01:19:04.894Z,15.27
2017-11-14T01:21:31.089Z,13.50
2017-11-14T01:23:58.046Z,9.27
2017-11-14T01:26:24.990Z,19.27
2017-11-14T01:28:51.159Z,12.37
2017-11-14T01:31:17.361Z,13.60
2017-11-14T01:33:44.293Z,11.23
2017-11-14T01:36:10.468Z,12.50
2017-11-14T01:38:36.660Z,12.70
2017-11-14T01:41:03.606Z,12.50
2017-11-14T01:43:29.806Z,9.40
2017-11-14T01:45:55.997Z,12.13
2017-11-14T01:48:22.941Z,12.93
2017-11-14T01:50:49.869Z,11.60
2017-11-14T01:53:16.087Z,13.07
2017-11-14T01:55:42.275Z,12.00
2017-11-14T01:58:08.475Z,10.70
2017-11-14T02:00:47.006Z,17.70
2017-11-14T02:03:13.933Z,18.67
2017-11-14T02:05:40.134Z,9.63
2017-11-14T02:08:06.367Z,12.40
2017-11-14T02:10:32.554Z,11.10
2017-11-14T02:12:59.518Z,11.90
2017-11-14T02:15:26.498Z,12.10
2017-11-14T02:17:52.753Z,12.73
2017-11-14T02:20:18.923Z,12.07
2017-11-14T02:22:45.874Z,12.37
2017-11-14T02:25:12.041Z,9.80
2017-11-14T02:27:38.969Z,7.87
2017-11-14T02:30:05.898Z,9.03
2017-11-14T02:32:32.051Z,11.50
2017-11-14T02:34:58.963Z,8.50
2017-11-14T02:37:25.148Z,10.60
2017-11-14T02:39:52.065Z,6.70
2017-11-14T02:42:18.237Z,18.03
2017-11-14T02:44:44.436Z,12.90
2017-11-14T02:47:10.630Z,13.00
2017-11-14T02:49:36.842Z,14.23
2017-11-14T02:52:03.070Z,10.87
2017-11-14T02:54:29.321Z,12.87
2017-11-14T02:56:55.544Z,8.67
2017-11-14T02:59:21.760Z,10.03
2017-11-14T03:01:48.698Z,8.03
2017-11-14T03:04:14.873Z,11.57
2017-11-14T03:06:41.090Z,5.97
2017-11-14T03:09:07.299Z,7.53
2017-11-14T03:11:34.239Z,8.03
2017-11-14T03:14:00.422Z,10.37
2017-11-14T03:16:26.598Z,7.37
2017-11-14T03:18:52.875Z,8.23
2017-11-14T03:21:19.112Z,6.80
2017-11-14T03:23:45.294Z,14.20
2017-11-14T03:26:11.539Z,6.30
2017-11-14T03:28:37.708Z,9.23
2017-11-14T03:31:04.624Z,6.57
2017-11-14T03:33:31.571Z,7.10
2017-11-14T03:35:57.750Z,7.40
2017-11-14T03:38:23.935Z,7.57
2017-11-14T03:40:50.150Z,7.97
2017-11-14T03:43:16.354Z,5.60
2017-11-14T03:45:42.543Z,12.03
2017-11-14T03:48:08.732Z,10.30
2017-11-14T03:50:34.914Z,11.80
2017-11-14T03:53:01.090Z,10.53
2017-11-14T03:55:27.317Z,11.43
2017-11-14T03:57:54.246Z,10.70
2017-11-14T04:00:20.407Z,8.83
2017-11-14T04:02:46.604Z,9.70
2017-11-14T04:05:12.781Z,5.63
2017-11-14T04:07:38.972Z,12.10
2017-11-14T04:10:05.921Z,10.77
2017-11-14T04:12:32.117Z,5.97
2017-11-14T04:14:58.301Z,10.03
2017-11-14T04:17:25.222Z,9.37
2017-11-14T04:19:53.190Z,12.40
2017-11-14T04:22:20.116Z,16.20
2017-11-14T04:24:46.362Z,12.23
2017-11-14T04:27:12.560Z,18.53
2017-11-14T04:29:38.749Z,13.00
2017-11-14T04:32:06.421Z,14.67
2017-11-14T04:34:32.628Z,23.97
2017-11-14T04:36:58.821Z,10.43
2017-11-14T04:39:25.750Z,9.93
2017-11-14T04:41:52.698Z,8.77
2017-11-14T04:44:18.895Z,16.37
2017-11-14T04:46:45.103Z,7.30
2017-11-14T04:49:11.282Z,15.17
2017-11-14T04:51:37.511Z,8.10
2017-11-14T04:54:03.708Z,9.47
2017-11-14T04:56:29.921Z,12.30
2017-11-14T04:58:56.117Z,13.10
2017-11-14T05:01:22.309Z,13.63
2017-11-14T05:03:48.508Z,9.87
2017-11-14T05:06:15.437Z,20.50
2017-11-14T05:08:41.662Z,17.40
2017-11-14T05:11:07.973Z,14.03
2017-11-14T05:13:34.177Z,15.67
2017-11-14T05:16:01.122Z,8.70
2017-11-14T05:18:28.143Z,11.50
2017-11-14T05:20:54.391Z,9.57
2017-11-14T05:23:20.591Z,11.40
2017-11-14T05:25:46.782Z,12.03
2017-11-14T05:28:12.963Z,12.77
2017-11-14T05:30:39.146Z,8.13
2017-11-14T05:33:06.986Z,8.87
2017-11-14T05:35:33.244Z,8.10
2017-11-14T05:38:00.198Z,13.93
2017-11-14T05:40:27.146Z,13.33
2017-11-14T05:42:54.071Z,11.77
2017-11-14T05:45:20.263Z,14.73
2017-11-14T05:47:46.454Z,8.33
2017-11-14T05:50:13.390Z,9.07
2017-11-14T05:52:39.615Z,12.67
2017-11-14T05:55:05.837Z,13.67
2017-11-14T05:57:32.027Z,8.93
2017-11-14T05:59:58.230Z,15.57
2017-11-14T06:02:24.419Z,14.10
2017-11-14T06:04:50.606Z,11.80
2017-11-14T06:07:16.814Z,13.77
2017-11-14T06:09:43.057Z,17.53
2017-11-14T06:12:09.338Z,32.50
2017-11-14T06:14:36.448Z,18.50
2017-11-14T06:17:02.687Z,16.73
2017-11-14T06:19:28.850Z,22.40
2017-11-14T06:21:55.130Z,18.07
2017-11-14T06:24:21.377Z,19.57
2017-11-14T06:26:47.573Z,15.37
2017-11-14T06:29:14.582Z,23.93
2017-11-14T06:31:40.814Z,13.30
2017-11-14T06:34:07.014Z,12.63
2017-11-14T06:36:33.215Z,16.20
2017-11-14T06:39:00.269Z,19.03
2017-11-14T06:41:26.505Z,12.60
2017-11-14T06:43:53.418Z,17.93
2017-11-14T06:46:19.646Z,17.83
2017-11-14T06:48:45.847Z,18.50
2017-11-14T06:51:12.030Z,15.43
2017-11-14T06:53:38.257Z,18.00
2017-11-14T06:56:04.485Z,13.50
2017-11-14T06:58:30.730Z,18.40
2017-11-14T07:00:57.696Z,13.43
2017-11-14T07:03:24.643Z,16.80
2017-11-14T07:05:50.854Z,22.40
2017-11-14T07:08:17.068Z,10.00
2017-11-14T07:10:43.275Z,18.07
2017-11-14T07:13:09.522Z,18.33
2017-11-14T07:15:35.721Z,18.17
2017-11-14T07:18:01.915Z,14.70
2017-11-14T07:20:28.089Z,12.87
2017-11-14T07:22:54.362Z,13.40
2017-11-14T07:25:20.556Z,14.03
2017-11-14T07:27:47.539Z,17.17
2017-11-14T07:30:13.774Z,11.13
2017-11-14T07:32:39.978Z,19.13
2017-11-14T07:35:06.212Z,16.20
2017-11-14T07:37:33.172Z,20.27
2017-11-14T07:40:00.130Z,13.13
2017-11-14T07:42:27.080Z,18.40
2017-11-14T07:44:54.005Z,15.60
2017-11-14T07:47:20.955Z,20.50
2017-11-14T07:49:47.900Z,13.93
2017-11-14T07:52:14.119Z,26.60
2017-11-14T07:54:40.308Z,18.67
2017-11-14T07:57:06.517Z,13.73
2017-11-14T07:59:32.708Z,9.90
2017-11-14T08:01:58.915Z,9.57
2017-11-14T08:04:25.823Z,16.23
2017-11-14T08:06:52.199Z,12.90
2017-11-14T08:09:18.504Z,13.10
2017-11-14T08:11:44.727Z,14.53
2017-11-14T08:14:10.938Z,14.50
2017-11-14T08:16:37.934Z,22.13
2017-11-14T08:19:04.892Z,20.43
2017-11-14T08:21:31.833Z,11.17
2017-11-14T08:23:58.851Z,8.10
2017-11-14T08:26:25.059Z,6.27
2017-11-14T08:28:51.307Z,20.67
2017-11-14T08:31:17.561Z,11.17
2017-11-14T08:33:43.750Z,12.43
2017-11-14T08:36:09.959Z,12.93
2017-11-14T08:38:36.886Z,11.83
2017-11-14T08:41:03.056Z,7.87
2017-11-14T08:43:30.068Z,11.90
2017-11-14T08:45:56.271Z,10.67
2017-11-14T08:48:22.446Z,15.93
2017-11-14T08:50:48.705Z,12.50
2017-11-14T08:53:15.634Z,12.10
2017-11-14T08:55:41.816Z,8.77
2017-11-14T08:58:08.037Z,16.07
2017-11-14T09:00:34.235Z,12.53
2017-11-14T09:03:01.179Z,14.23
2017-11-14T09:05:27.387Z,9.43
2017-11-14T09:07:53.618Z,11.37
2017-11-14T09:10:19.814Z,17.67
2017-11-14T09:12:46.727Z,5.53
2017-11-14T09:15:12.907Z,16.00
2017-11-14T09:17:39.107Z,13.33
2017-11-14T09:20:06.048Z,13.80
2017-11-14T09:22:32.253Z,25.00
2017-11-14T09:24:58.498Z,16.63
2017-11-14T09:27:24.701Z,7.60
2017-11-14T09:29:50.883Z,6.10
2017-11-14T09:32:17.059Z,23.83
2017-11-14T09:34:43.998Z,6.87
2017-11-14T09:37:10.926Z,10.23
2017-11-14T09:39:37.094Z,15.87
2017-11-14T09:42:03.290Z,11.63
2017-11-14T09:44:30.234Z,9.83
2017-11-14T09:46:56.394Z,18.37
2017-11-14T09:49:22.574Z,6.53
2017-11-14T09:51:48.734Z,13.33
2017-11-14T09:54:14.923Z,11.13
2017-11-14T09:56:41.126Z,17.17
2017-11-14T09:59:07.315Z,10.67
2017-11-14T10:01:33.499Z,15.73
2017-11-14T10:04:00.449Z,10.73
2017-11-14T10:06:26.626Z,7.07
2017-11-14T10:08:52.810Z,10.03
2017-11-14T10:11:19.791Z,22.33
2017-11-14T10:13:45.965Z,16.13
2017-11-14T10:16:12.159Z,11.87
2017-11-14T10:18:38.366Z,12.23
2017-11-14T10:21:05.291Z,12.13
2017-11-14T10:23:31.464Z,11.13
2017-11-14T10:25:58.668Z,9.80
2017-11-14T10:28:24.848Z,12.40
2017-11-14T10:30:51.766Z,12.87
2017-11-14T10:33:18.050Z,10.50
2017-11-14T10:35:44.235Z,14.50
2017-11-14T10:38:10.447Z,7.70
2017-11-14T10:40:36.683Z,11.20
2017-11-14T10:43:02.877Z,9.97
2017-11-14T10:45:29.122Z,13.50
2017-11-14T10:47:55.346Z,20.17
2017-11-14T10:50:21.547Z,10.03
2017-11-14T10:52:47.759Z,8.20
2017-11-14T10:55:14.002Z,11.63
2017-11-14T10:57:40.198Z,9.20
2017-11-14T11:00:06.528Z,9.13
2017-11-14T11:02:32.724Z,15.43
2017-11-14T11:04:58.936Z,20.40
2017-11-14T11:07:25.102Z,14.63
2017-11-14T11:09:52.074Z,10.90
2017-11-14T11:12:18.284Z,16.83
2017-11-14T11:14:44.449Z,17.40
2017-11-14T11:17:10.644Z,6.70
2017-11-14T11:19:37.587Z,7.90
2017-11-14T11:22:03.751Z,9.43
2017-11-14T11:24:29.986Z,9.37
2017-11-14T11:26:56.940Z,11.77
2017-11-14T11:29:23.135Z,18.77
2017-11-14T11:31:49.393Z,9.13
2017-11-14T11:34:15.617Z,16.83
2017-11-14T11:36:42.544Z,11.00
2017-11-14T11:39:08.765Z,12.20
2017-11-14T11:41:34.960Z,8.90
2017-11-14T11:44:01.155Z,15.40
2017-11-14T11:46:27.376Z,19.73
2017-11-14T11:48:53.579Z,14.40
2017-11-14T11:51:19.804Z,23.37
2017-11-14T11:53:46.003Z,24.20
2017-11-14T11:56:12.217Z,14.50
2017-11-14T11:58:38.412Z,20.20
2017-11-14T12:01:04.617Z,24.97
2017-11-14T12:03:31.542Z,33.43
2017-11-14T12:05:57.729Z,12.17
2017-11-14T12:08:23.930Z,14.23
2017-11-14T12:11:02.527Z,23.73
2017-11-14T12:13:41.584Z,10.53
2017-11-14T12:16:07.779Z,26.83
2017-11-14T12:18:33.986Z,16.30
2017-11-14T12:21:00.187Z,20.10
2017-11-14T12:23:27.119Z,21.53
2017-11-14T12:25:54.782Z,19.73
2017-11-14T12:28:21.091Z,22.87
2017-11-14T12:30:47.317Z,16.57
2017-11-14T12:33:13.505Z,17.43
2017-11-14T12:35:40.447Z,14.13
2017-11-14T12:38:06.637Z,28.93
2017-11-14T12:40:32.837Z,22.80
2017-11-14T12:42:59.049Z,22.17
2017-11-14T12:45:25.999Z,20.60
2017-11-14T12:47:52.178Z,21.33
2017-11-14T12:50:18.432Z,22.53
2017-11-14T12:52:44.656Z,15.53
2017-11-14T12:55:10.898Z,17.70
2017-11-14T12:57:37.117Z,15.50
2017-11-14T13:00:03.325Z,20.23
2017-11-14T13:02:29.537Z,15.47
2017-11-14T13:04:55.750Z,20.03
2017-11-14T13:07:21.937Z,19.50
2017-11-14T13:09:48.131Z,23.40
2017-11-14T13:12:14.355Z,27.07
2017-11-14T13:14:40.593Z,14.43
2017-11-14T13:17:06.790Z,17.80
2017-11-14T13:19:33.043Z,16.93
2017-11-14T13:21:59.231Z,28.17
2017-11-14T13:24:25.468Z,26.40
2017-11-14T13:26:52.391Z,21.07
2017-11-14T13:29:18.659Z,25.33
2017-11-14T13:31:44.846Z,22.60
2017-11-14T13:34:11.110Z,15.70
2017-11-14T13:36:38.106Z,24.47
2017-11-14T13:39:04.335Z,15.30
2017-11-14T13:41:30.569Z,29.70
2017-11-14T13:43:56.782Z,29.53
2017-11-14T13:46:23.003Z,26.47
2017-11-14T13:48:50.771Z,22.97
2017-11-14T13:51:17.196Z,33.17
2017-11-14T13:53:44.143Z,30.80
2017-11-14T13:56:11.138Z,27.63
2017-11-14T13:58:37.373Z,23.97
2017-11-14T14:01:03.631Z,30.50
2017-11-14T14:03:29.816Z,26.33
2017-11-14T14:05:56.741Z,26.90
2017-11-14T14:08:22.961Z,26.30
2017-11-14T14:10:49.177Z,23.07
2017-11-14T14:13:15.365Z,27.30
2017-11-14T14:15:42.288Z,25.27
2017-11-14T14:18:08.487Z,31.10
2017-11-14T14:20:34.692Z,21.20
2017-11-14T14:23:01.774Z,30.87
2017-11-14T14:25:28.780Z,23.63
2017-11-14T14:27:55.713Z,28.73
2017-11-14T14:30:21.970Z,19.47
2017-11-14T14:32:48.165Z,29.93
2017-11-14T14:35:14.368Z,24.87
2017-11-14T14:37:40.571Z,29.30
2017-11-14T14:40:07.519Z,38.27
2017-11-14T14:42:33.706Z,30.23
2017-11-14T14:44:59.884Z,26.93
2017-11-14T14:47:26.075Z,28.80
2017-11-14T14:49:52.258Z,27.47
2017-11-14T14:52:19.187Z,31.70
2017-11-14T14:54:45.395Z,28.00
2017-11-14T14:57:11.634Z,30.77
2017-11-14T14:59:37.888Z,36.87
2017-11-14T15:02:04.103Z,38.83
2017-11-14T15:04:30.314Z,36.80
2017-11-14T15:06:56.540Z,32.80
2017-11-14T15:09:22.772Z,29.07
2017-11-14T15:11:48.961Z,34.70
2017-11-14T15:14:15.178Z,31.50
2017-11-14T15:16:41.379Z,32.77
2017-11-14T15:19:07.554Z,33.73
2017-11-14T15:21:33.762Z,35.53
2017-11-14T15:23:59.958Z,31.40
2017-11-14T15:26:26.887Z,37.63
2017-11-14T15:28:53.051Z,42.87
2017-11-14T15:31:20.041Z,31.17
2017-11-14T15:33:46.223Z,37.10
2017-11-14T15:36:13.142Z,36.47
2017-11-14T15:38:39.335Z,52.50
2017-11-14T15:41:05.499Z,49.90
2017-11-14T15:43:31.662Z,43.67
2017-11-14T15:45:58.598Z,39.57
2017-11-14T15:48:24.794Z,36.07
2017-11-14T15:50:50.986Z,36.70
2017-11-14T15:53:17.193Z,32.10
2017-11-14T15:55:43.372Z,40.13
2017-11-14T15:58:09.582Z,28.87
2017-11-14T16:00:35.801Z,40.80
2017-11-14T16:03:01.983Z,38.53
2017-11-14T16:05:28.194Z,42.73
2017-11-14T16:07:55.188Z,26.00
2017-11-14T16:10:21.404Z,32.47
2017-11-14T16:12:47.587Z,36.00
2017-11-14T16:15:13.804Z,33.90
2017-11-14T16:17:40.002Z,38.37
2017-11-14T16:20:06.195Z,35.20
2017-11-14T16:22:32.415Z,36.80
2017-11-14T16:24:58.586Z,24.73
2017-11-14T16:27:25.513Z,36.27
2017-11-14T16:29:51.726Z,31.33
2017-11-14T16:32:18.081Z,36.03
2017-11-14T16:34:44.277Z,37.13
2017-11-14T16:37:10.514Z,37.90
2017-11-14T16:39:36.734Z,36.87
2017-11-14T16:42:03.003Z,34.50
2017-11-14T16:44:29.235Z,41.23
2017-11-14T16:46:55.437Z,31.93
2017-11-14T16:49:21.628Z,42.00
2017-11-14T16:51:48.606Z,32.80
2017-11-14T16:54:14.822Z,32.40
2017-11-14T16:56:41.778Z,31.47
2017-11-14T16:59:08.752Z,35.60
2017-11-14T17:01:35.674Z,40.80
2017-11-14T17:04:01.862Z,35.80
2017-11-14T17:06:28.058Z,34.90
2017-11-14T17:08:55.056Z,35.77
2017-11-14T17:11:21.254Z,35.83
2017-11-14T17:13:47.647Z,40.47
2017-11-14T17:16:13.883Z,46.13
2017-11-14T17:18:40.090Z,54.20
2017-11-14T17:21:06.365Z,33.73
2017-11-14T17:23:33.301Z,37.30
2017-11-14T17:26:00.230Z,45.20
2017-11-14T17:28:26.537Z,49.83
2017-11-14T17:30:52.841Z,39.77
2017-11-14T17:33:20.682Z,43.47
2017-11-14T17:35:47.034Z,37.03
2017-11-14T17:38:13.271Z,44.67
2017-11-14T17:40:40.222Z,46.57
2017-11-14T17:43:06.437Z,37.93
2017-11-14T17:45:32.671Z,43.53
2017-11-14T17:47:58.876Z,39.33
2017-11-14T17:50:25.073Z,43.30
2017-11-14T17:52:52.018Z,43.90
2017-11-14T17:55:18.234Z,47.60
2017-11-14T17:57:44.472Z,41.30
2017-11-14T18:00:10.716Z,50.40
2017-11-14T18:02:36.894Z,45.17
2017-11-14T18:05:03.136Z,41.97
2017-11-14T18:07:29.355Z,42.10
2017-11-14T18:09:55.534Z,42.50
2017-11-14T18:12:21.726Z,46.33
2017-11-14T18:14:47.910Z,43.20
2017-11-14T18:17:14.083Z,50.53
2017-11-14T18:19:40.320Z,44.80
2017-11-14T18:22:07.302Z,48.53
2017-11-14T18:24:33.489Z,44.30
2017-11-14T18:27:00.439Z,54.53
2017-11-14T18:29:27.366Z,45.90
2017-11-14T18:31:53.594Z,49.90
2017-11-14T18:36:52.823Z,55.40
2017-11-14T18:39:19.812Z,46.37
2017-11-14T18:41:46.819Z,42.93
2017-11-14T18:44:13.056Z,54.60
2017-11-14T18:46:39.522Z,60.40
2017-11-14T18:49:06.501Z,51.27
2017-11-14T18:51:33.497Z,46.37
2017-11-14T18:53:59.756Z,52.13
2017-11-14T18:56:26.025Z,51.13
2017-11-14T18:58:52.281Z,46.57
2017-11-14T19:01:19.354Z,63.43
2017-11-14T19:03:45.633Z,61.07
2017-11-14T19:06:11.925Z,59.57
2017-11-14T19:08:38.235Z,56.13
2017-11-14T19:11:04.513Z,63.93
2017-11-14T19:13:30.797Z,56.07
2017-11-14T19:15:57.863Z,58.27
2017-11-14T19:18:24.090Z,63.43
2017-11-14T19:20:51.083Z,62.43
2017-11-14T19:23:17.345Z,62.90
2017-11-14T19:25:43.570Z,62.80
2017-11-14T19:28:10.607Z,71.30
2017-11-14T19:30:36.899Z,59.50
2017-11-14T19:33:03.171Z,69.33
2017-11-14T19:35:29.504Z,69.47
2017-11-14T19:37:55.878Z,72.40
2017-11-14T19:40:22.932Z,66.53
2017-11-14T19:42:49.143Z,69.17
2017-11-14T19:45:15.370Z,72.13
2017-11-14T19:47:41.531Z,71.67
2017-11-14T19:50:07.709Z,59.87
2017-11-14T19:52:33.918Z,66.53
2017-11-14T19:55:00.134Z,75.10
2017-11-14T19:57:27.067Z,70.20
2017-11-14T19:59:54.778Z,62.17
2017-11-14T20:02:20.987Z,78.73
2017-11-14T20:04:47.194Z,67.73
2017-11-14T20:07:13.382Z,66.13
2017-11-14T20:09:39.589Z,57.70
2017-11-14T20:12:05.787Z,77.47
2017-11-14T20:14:31.986Z,81.13
2017-11-14T20:16:58.179Z,69.00
2017-11-14T20:19:25.113Z,61.00
2017-11-14T20:21:51.311Z,71.70
2017-11-14T20:24:17.552Z,81.40
2017-11-14T20:26:43.726Z,60.10
2017-11-14T20:29:09.928Z,66.70
2017-11-14T20:31:36.115Z,79.67
2017-11-14T20:34:03.020Z,57.40
2017-11-14T20:36:29.303Z,62.10
2017-11-14T20:38:56.210Z,66.10
2017-11-14T20:41:22.400Z,64.07
2017-11-14T20:43:48.715Z,78.83
2017-11-14T20:46:15.675Z,61.33
2017-11-14T20:48:41.893Z,76.17
2017-11-14T20:51:08.839Z,57.30
2017-11-14T20:53:35.078Z,67.17
2017-11-14T20:56:02.022Z,73.93
2017-11-14T20:58:28.987Z,68.17
2017-11-14T21:00:55.896Z,71.83
2017-11-14T21:03:22.079Z,58.90
2017-11-14T21:05:49.050Z,57.10
2017-11-14T21:08:15.254Z,71.50
2017-11-14T21:10:41.462Z,65.20
2017-11-14T21:13:07.716Z,59.17
2017-11-14T21:15:34.708Z,68.40
2017-11-14T21:18:00.920Z,70.37
2017-11-14T21:20:27.148Z,68.27
2017-11-14T21:22:54.087Z,69.30
2017-11-14T21:25:21.038Z,70.93
2017-11-14T21:27:47.975Z,74.10
2017-11-14T21:30:14.148Z,63.60
2017-11-14T21:32:40.349Z,73.33
2017-11-14T21:35:06.542Z,64.40
2017-11-14T21:37:32.853Z,65.40
2017-11-14T21:39:59.864Z,63.27
2017-11-14T21:42:26.079Z,63.30
2017-11-14T21:44:52.267Z,61.37
2017-11-14T21:47:18.474Z,58.77
2017-11-14T21:49:44.658Z,80.13
2017-11-14T21:52:10.854Z,73.70
2017-11-14T21:54:37.766Z,81.17
2017-11-14T21:57:04.018Z,77.93
2017-11-14T21:59:30.230Z,72.73
2017-11-14T22:01:56.421Z,90.40
2017-11-14T22:04:22.630Z,98.10
2017-11-14T22:06:48.821Z,88.40
2017-11-14T22:09:14.995Z,82.23
2017-11-14T22:11:41.182Z,82.73
2017-11-14T22:14:07.352Z,101.60
2017-11-14T22:16:33.534Z,92.93
2017-11-14T22:18:59.734Z,100.93
2017-11-14T22:21:25.913Z,69.83
2017-11-14T22:23:52.142Z,92.60
2017-11-14T22:26:18.361Z,88.00
2017-11-14T22:28:44.550Z,98.17
2017-11-14T22:31:10.733Z,92.50
2017-11-14T22:33:36.938Z,102.70
2017-11-14T22:36:03.864Z,123.77
2017-11-14T22:38:31.598Z,116.33
2017-11-14T22:40:57.774Z,107.13
2017-11-14T22:43:23.948Z,115.67
2017-11-14T22:45:50.127Z,111.27
2017-11-14T22:48:16.381Z,113.57
2017-11-14T22:50:42.559Z,111.17
2017-11-14T22:53:08.727Z,122.43
2017-11-14T22:55:34.935Z,115.27
2017-11-14T22:58:01.121Z,121.37
2017-11-14T23:00:30.147Z,118.47
2017-11-14T23:02:57.058Z,115.93
2017-11-14T23:05:23.248Z,120.13
2017-11-14T23:07:49.412Z,121.97
2017-11-14T23:10:15.618Z,113.77
2017-11-14T23:12:41.824Z,150.47
2017-11-14T23:15:08.743Z,128.93
2017-11-14T23:17:35.694Z,115.10
2017-11-14T23:20:01.878Z,130.40
2017-11-14T23:22:28.078Z,151.13
2017-11-14T23:24:54.264Z,126.47
2017-11-14T23:27:20.478Z,123.87
2017-11-14T23:29:46.660Z,103.60
2017-11-14T23:32:14.340Z,101.87
2017-11-14T23:34:41.266Z,129.60
2017-11-14T23:37:07.430Z,97.20
2017-11-14T23:39:33.737Z,99.37
2017-11-14T23:41:59.913Z,108.90
2017-11-14T23:44:26.834Z,138.00
2017-11-14T23:46:53.878Z,112.07
2017-11-14T23:49:20.078Z,95.50
2017-11-14T23:51:46.309Z,75.90
2017-11-14T23:54:12.534Z,104.20
2017-11-14T23:56:38.699Z,105.07
2017-11-14T23:59:04.875Z,111.60
